| Record Date MM/DD/YYYY | Record Time HH:MM:SS | Record Julian Date NNN day of the year | Air Temperature Max (Degrees Fahrenheit F) | Time Max Air Temperature HH:MM:SS This is the time of max air temp for the prior hour interval listed for record [Time]. | Air Temperature Min (Degrees Fahrenheit F) | Time Min Air Temperature HH:MM:SS This is the time of min air temp for the prior hour interval listed for record [Time]. | Air Temperature Observed (Degrees Fahrenheit F) This is an instantaneous reading at the record [Time]. | Relative Humidity Max (Percent) | Time Max Relative Humidity HH:MM:SS This is the time of max relative humidity for the prior hour interval listed for record [Time]. | Relative Humidity Min (Percent) | Time Min Relative Humidity HH:MM:SS This is the time of min relative humidity for the prior hour interval listed for record [Time]. | Relative Humidity Observed (Percent) This is an instantaneous reading at the record [Time]. | Precipitation (Inches n.nn) rain fall that occurred during the prior hour interval listed for record [Time]. | Wind Speed (Miles Per Hour) Resultant Speed that occurred during the prior hour interval listed for record [Time]. | Wind Direction (Degrees) Resultant Direction that occurred during the prior hour interval listed for record [Time]. | Solar Radiation (Langley's) that occurred during the prior hour interval listed for record [Time]. | Soil Temperature Average at 2 inch depth (Degrees Fahrenheit F) that occurred during the prior hour interval listed for record [Time]. | Soil Temperature Observed at 2 inch depth (Degrees Fahrenheit F) This is an instantaneous reading at the record [Time]. | Soil Temperature Average at 4 inch depth (Degrees Fahrenheit F) that occurred during the prior hour interval listed for record [Time]. | Soil Temperature Observed at 4 inch depth (Degrees Fahrenheit F) This is an instantaneous reading at the record [Time]. |
|---|---|---|---|---|---|---|---|---|---|---|---|---|---|---|---|---|---|---|---|---|
| 05/02/2026 | 0:00:00 | 122 | 58 | 23:39:05 | 58 | 23:58:05 | 58 | 64 | 23:57:05 | 57 | 23:39:02 | 60.86 | 0 | 3.5 | 35 | 0 | 63 | 63 | 64 | 64 |
| 05/02/2026 | 1:00:00 | 122 | 58 | 0:09:03 | 57 | 0:57:02 | 57 | 65 | 0:02:03 | 59 | 0:34:04 | 64.12 | 0 | 3.4 | 30 | 0 | 63 | 63 | 64 | 64 |
| 05/02/2026 | 2:00:00 | 122 | 57 | 1:00:01 | 54 | 1:57:01 | 55 | 72 | 1:44:03 | 64 | 1:00:00 | 70.71 | 0 | 2.2 | 12 | 0 | 63 | 63 | 63 | 63 |
| 05/02/2026 | 3:00:00 | 122 | 55 | 2:00:05 | 52 | 2:59:05 | 52 | 76 | 3:00:00 | 71 | 2:29:04 | 75.83 | 0 | 2.5 | 13 | 0 | 63 | 62 | 63 | 63 |
| 05/02/2026 | 4:00:00 | 122 | 52 | 3:17:02 | 51 | 3:56:01 | 52 | 77 | 3:03:05 | 74 | 3:41:04 | 74.68 | 0 | 2.4 | 10 | 0 | 62 | 62 | 63 | 62 |
| 05/02/2026 | 5:00:00 | 122 | 52 | 4:00:00 | 50 | 4:59:05 | 50 | 81 | 4:59:04 | 74 | 4:03:02 | 80.9 | 0 | 2.2 | 9 | 0 | 62 | 62 | 62 | 62 |
| 05/02/2026 | 6:00:00 | 122 | 52 | 5:59:02 | 49 | 5:04:05 | 52 | 81 | 5:02:00 | 75 | 5:59:05 | 75.48 | 0 | 1.5 | 349 | 2 | 61 | 61 | 62 | 62 |
| 05/02/2026 | 7:00:00 | 122 | 56 | 6:59:04 | 52 | 6:00:04 | 56 | 76 | 6:02:04 | 67 | 6:57:01 | 67.63 | 0 | 2.8 | 3 | 9 | 61 | 61 | 61 | 61 |
| 05/02/2026 | 8:00:00 | 122 | 60 | 7:59:05 | 56 | 7:08:01 | 60 | 70 | 7:11:01 | 57 | 7:54:02 | 62.21 | 0 | 3.6 | 12 | 20 | 61 | 61 | 61 | 61 |
| 05/02/2026 | 9:00:00 | 122 | 64 | 8:59:01 | 60 | 8:03:03 | 64 | 63 | 8:00:02 | 47 | 8:55:02 | 51.35 | 0 | 2.9 | 32 | 48 | 61 | 62 | 61 | 62 |
| 05/02/2026 | 10:00:00 | 122 | 67 | 9:38:05 | 63 | 9:06:04 | 66 | 56 | 9:10:01 | 41 | 9:55:05 | 45.34 | 0 | 3.3 | 18 | 61 | 62 | 63 | 62 | 63 |
| 05/02/2026 | 11:00:00 | 122 | 68 | 10:55:05 | 66 | 10:00:02 | 68 | 49 | 10:05:02 | 36 | 10:59:01 | 36.96 | 0 | 3.7 | 356 | 71 | 64 | 65 | 64 | 65 |
| 05/02/2026 | 12:00:00 | 122 | 70 | 11:51:03 | 68 | 11:00:02 | 70 | 47 | 11:29:05 | 35 | 11:05:04 | 37.92 | 0 | 4.4 | 344 | 73 | 66 | 67 | 67 | 68 |
| 05/02/2026 | 13:00:00 | 122 | 71 | 12:58:04 | 69 | 12:35:02 | 71 | 45 | 12:39:01 | 32 | 12:50:04 | 35.54 | 0 | 4.5 | 329 | 65 | 68 | 68 | 69 | 69 |
| 05/02/2026 | 14:00:00 | 122 | 72 | 13:51:05 | 69 | 13:18:00 | 71 | 41 | 13:00:03 | 30 | 13:06:05 | 31.78 | 0 | 5.1 | 347 | 54 | 69 | 69 | 70 | 71 |
| 05/02/2026 | 15:00:00 | 122 | 73 | 14:23:05 | 71 | 14:00:04 | 72 | 40 | 14:14:05 | 31 | 14:48:05 | 33.65 | 0 | 4.9 | 310 | 65 | 70 | 70 | 71 | 71 |
| 05/02/2026 | 16:00:00 | 122 | 73 | 15:28:05 | 70 | 15:37:04 | 73 | 41 | 15:41:00 | 33 | 15:20:05 | 35.32 | 0 | 4.8 | 322 | 47 | 70 | 70 | 72 | 72 |
| 05/02/2026 | 17:00:00 | 122 | 73 | 16:20:02 | 71 | 16:14:00 | 72 | 39 | 16:25:01 | 34 | 16:01:05 | 36.06 | 0 | 4.3 | 317 | 32 | 70 | 70 | 72 | 72 |
| 05/02/2026 | 18:00:00 | 122 | 72 | 17:03:03 | 70 | 17:59:04 | 70 | 39 | 17:09:03 | 35 | 17:39:02 | 37.33 | 0 | 3.5 | 312 | 15 | 70 | 70 | 71 | 71 |
| 05/02/2026 | 19:00:00 | 122 | 70 | 18:00:01 | 65 | 18:55:05 | 65 | 48 | 18:55:01 | 37 | 18:03:04 | 46.28 | 0 | 1.5 | 309 | 1 | 70 | 69 | 71 | 70 |
| 05/02/2026 | 20:00:00 | 122 | 66 | 19:01:02 | 61 | 19:59:05 | 61 | 59 | 19:59:04 | 46 | 19:00:02 | 59.46 | 0 | 0.5 | 266 | 0 | 69 | 68 | 70 | 69 |
| 05/02/2026 | 21:00:00 | 122 | 61 | 20:00:01 | 57 | 20:50:05 | 57 | 80 | 20:45:00 | 59 | 20:00:00 | 73.51 | 0 | 0.3 | 71 | 0 | 68 | 68 | 69 | 69 |
| 05/02/2026 | 22:00:00 | 122 | 57 | 21:00:00 | 55 | 21:35:00 | 55 | 87 | 21:38:01 | 74 | 21:00:00 | 85.1 | 0 | 0.2 | 334 | 0 | 67 | 67 | 68 | 68 |
| 05/02/2026 | 23:00:00 | 122 | 55 | 22:00:00 | 53 | 22:30:00 | 54 | 90 | 22:27:00 | 85 | 22:00:00 | 88.6 | 0 | 0.4 | 16 | 0 | 66 | 66 | 67 | 67 |
| 05/03/2026 | 0:00:00 | 123 | 54 | 23:59:04 | 52 | 23:46:05 | 54 | 92 | 23:48:02 | 86 | 0:00:00 | 85.7 | 0 | 0.6 | 18 | 0 | 66 | 65 | 67 | 66 |
| 05/03/2026 | 1:00:00 | 123 | 56 | 0:51:05 | 53 | 0:38:00 | 55 | 86 | 0:00:00 | 71 | 0:53:03 | 74.14 | 0 | 1.4 | 21 | 0 | 65 | 65 | 66 | 65 |
| 05/03/2026 | 2:00:00 | 123 | 55 | 1:07:03 | 54 | 1:35:05 | 54 | 74 | 2:00:00 | 70 | 1:07:01 | 74.46 | 0 | 4.5 | 72 | 0 | 65 | 64 | 65 | 65 |
| 05/03/2026 | 3:00:00 | 123 | 54 | 2:00:00 | 52 | 2:56:05 | 52 | 79 | 2:56:03 | 74 | 2:02:00 | 78.68 | 0 | 4.6 | 94 | 0 | 64 | 64 | 65 | 64 |
| 05/03/2026 | 4:00:00 | 123 | 52 | 3:00:00 | 50 | 3:59:00 | 50 | 85 | 3:59:04 | 79 | 3:00:05 | 84.7 | 0 | 2.4 | 100 | 0 | 64 | 63 | 64 | 64 |
| 05/03/2026 | 5:00:00 | 123 | 50 | 4:00:00 | 49 | 4:40:03 | 50 | 87 | 4:41:05 | 85 | 4:00:02 | 85.2 | 0 | 1.7 | 117 | 0 | 63 | 63 | 63 | 63 |
| 05/03/2026 | 6:00:00 | 123 | 52 | 5:59:01 | 49 | 5:16:02 | 52 | 87 | 5:17:00 | 82 | 5:59:04 | 81.7 | 0 | 2.2 | 124 | 2 | 63 | 62 | 63 | 63 |
| 05/03/2026 | 7:00:00 | 123 | 56 | 6:59:05 | 52 | 6:00:01 | 56 | 82 | 6:00:05 | 71 | 6:59:04 | 71.73 | 0 | 3.6 | 135 | 9 | 62 | 62 | 63 | 62 |
| 05/03/2026 | 8:00:00 | 123 | 60 | 7:59:04 | 56 | 7:00:05 | 60 | 72 | 7:02:00 | 55 | 8:00:00 | 55.17 | 0 | 5.7 | 136 | 20 | 62 | 62 | 62 | 62 |
| 05/03/2026 | 9:00:00 | 123 | 65 | 8:59:01 | 60 | 8:03:05 | 65 | 59 | 8:10:05 | 48 | 8:57:05 | 48.69 | 0 | 6.0 | 157 | 49 | 62 | 63 | 62 | 63 |
| 05/03/2026 | 10:00:00 | 123 | 69 | 9:55:04 | 64 | 9:02:02 | 68 | 53 | 9:06:05 | 45 | 9:58:04 | 48.31 | 0 | 6.5 | 181 | 62 | 63 | 64 | 63 | 64 |
| 05/03/2026 | 11:00:00 | 123 | 71 | 10:43:04 | 68 | 10:11:05 | 71 | 52 | 10:06:05 | 42 | 10:58:03 | 42.71 | 0 | 5.7 | 183 | 71 | 65 | 66 | 65 | 65 |
| 05/03/2026 | 12:00:00 | 123 | 75 | 12:00:00 | 71 | 11:00:02 | 75 | 47 | 11:16:00 | 34 | 11:44:00 | 37.52 | 0 | 3.7 | 207 | 76 | 67 | 68 | 66 | 68 |
| 05/03/2026 | 13:00:00 | 123 | 76 | 12:50:04 | 74 | 12:21:05 | 75 | 44 | 12:16:03 | 32 | 12:51:00 | 33.68 | 0 | 3.9 | 219 | 75 | 69 | 70 | 69 | 70 |
| 05/03/2026 | 14:00:00 | 123 | 78 | 13:52:02 | 75 | 13:05:05 | 77 | 41 | 13:51:04 | 32 | 13:14:05 | 36.12 | 0 | 3.4 | 268 | 71 | 71 | 72 | 71 | 72 |
| 05/03/2026 | 15:00:00 | 123 | 78 | 14:59:00 | 75 | 14:11:04 | 78 | 40 | 14:41:02 | 33 | 14:30:03 | 35.73 | 0 | 4.3 | 265 | 62 | 72 | 73 | 72 | 73 |
| 05/03/2026 | 16:00:00 | 123 | 79 | 15:02:03 | 76 | 15:12:05 | 78 | 38 | 15:00:04 | 32 | 15:12:00 | 34.68 | 0 | 4.8 | 268 | 49 | 73 | 73 | 73 | 73 |
| 05/03/2026 | 17:00:00 | 123 | 80 | 16:49:04 | 77 | 16:21:02 | 79 | 37 | 16:14:03 | 32 | 16:23:01 | 35.62 | 0 | 3.6 | 258 | 33 | 73 | 73 | 73 | 73 |
| 05/03/2026 | 18:00:00 | 123 | 79 | 17:01:02 | 77 | 17:48:04 | 77 | 37 | 17:55:05 | 32 | 17:30:00 | 34.94 | 0 | 3.0 | 235 | 16 | 72 | 72 | 73 | 73 |
| 05/03/2026 | 19:00:00 | 123 | 77 | 18:00:00 | 71 | 18:59:04 | 71 | 47 | 18:40:03 | 34 | 18:00:02 | 46.33 | 0 | 1.3 | 211 | 1 | 72 | 71 | 72 | 72 |
| 05/03/2026 | 20:00:00 | 123 | 71 | 19:00:01 | 64 | 19:53:04 | 65 | 68 | 19:53:00 | 46 | 19:00:00 | 60.31 | 0 | 1.4 | 185 | 0 | 71 | 71 | 72 | 71 |
| 05/03/2026 | 21:00:00 | 123 | 66 | 20:03:05 | 65 | 20:41:05 | 65 | 61 | 20:40:03 | 58 | 20:23:02 | 60.35 | 0 | 2.8 | 198 | 0 | 70 | 70 | 71 | 70 |
| 05/03/2026 | 22:00:00 | 123 | 65 | 21:00:02 | 63 | 21:57:04 | 63 | 68 | 21:57:02 | 60 | 21:00:00 | 67.61 | 0 | 3.5 | 200 | 0 | 69 | 69 | 70 | 69 |
| 05/03/2026 | 23:00:00 | 123 | 63 | 22:00:01 | 63 | 22:39:03 | 63 | 71 | 22:57:00 | 68 | 22:00:05 | 71.09 | 0 | 3.3 | 199 | 0 | 69 | 68 | 69 | 69 |
| 05/04/2026 | 0:00:00 | 124 | 64 | 23:11:05 | 62 | 23:39:02 | 63 | 73 | 23:38:03 | 69 | 23:58:03 | 69.73 | 0 | 3.9 | 192 | 0 | 68 | 68 | 68 | 68 |
| 05/04/2026 | 1:00:00 | 124 | 65 | 0:52:03 | 63 | 0:03:03 | 64 | 71 | 0:04:03 | 67 | 0:19:01 | 68.46 | 0 | 5.6 | 198 | 0 | 68 | 67 | 68 | 68 |
| 05/04/2026 | 2:00:00 | 124 | 64 | 1:00:01 | 63 | 1:51:00 | 63 | 74 | 1:56:05 | 68 | 1:00:00 | 73.13 | 0 | 4.7 | 203 | 0 | 67 | 67 | 67 | 67 |
| 05/04/2026 | 3:00:00 | 124 | 63 | 2:00:04 | 61 | 3:00:00 | 61 | 78 | 2:59:05 | 73 | 2:03:05 | 78.17 | 0 | 3.3 | 211 | 0 | 67 | 67 | 67 | 67 |
| 05/04/2026 | 4:00:00 | 124 | 61 | 3:10:03 | 60 | 3:59:05 | 60 | 81 | 4:00:00 | 78 | 3:09:02 | 81 | 0 | 3.0 | 210 | 0 | 66 | 66 | 66 | 66 |
| 05/04/2026 | 5:00:00 | 124 | 60 | 4:00:00 | 59 | 4:54:00 | 59 | 83 | 4:54:02 | 81 | 4:00:00 | 82.2 | 0 | 3.0 | 207 | 0 | 66 | 66 | 66 | 66 |
| 05/04/2026 | 6:00:00 | 124 | 61 | 5:46:03 | 59 | 5:04:03 | 60 | 83 | 5:04:03 | 79 | 5:55:05 | 79.5 | 0 | 3.3 | 208 | 2 | 66 | 65 | 66 | 65 |
| 05/04/2026 | 7:00:00 | 124 | 64 | 6:52:01 | 60 | 6:02:00 | 63 | 80 | 6:11:01 | 74 | 6:54:01 | 75.58 | 0 | 3.0 | 217 | 10 | 65 | 65 | 65 | 65 |
| 05/04/2026 | 8:00:00 | 124 | 69 | 8:00:00 | 63 | 7:03:00 | 69 | 76 | 7:03:04 | 65 | 7:59:00 | 66.02 | 0 | 4.5 | 226 | 20 | 65 | 65 | 65 | 65 |
| 05/04/2026 | 9:00:00 | 124 | 74 | 9:00:00 | 69 | 8:00:00 | 74 | 66 | 8:00:01 | 54 | 8:58:00 | 55.46 | 0 | 4.7 | 228 | 48 | 66 | 66 | 65 | 66 |
| 05/04/2026 | 10:00:00 | 124 | 77 | 9:40:02 | 72 | 9:08:04 | 76 | 57 | 9:00:02 | 47 | 9:40:05 | 49.84 | 0 | 5.8 | 233 | 59 | 67 | 67 | 66 | 67 |
| 05/04/2026 | 11:00:00 | 124 | 78 | 10:51:05 | 76 | 10:00:00 | 78 | 50 | 10:05:03 | 41 | 10:55:03 | 42.38 | 0 | 6.1 | 227 | 70 | 68 | 69 | 68 | 69 |
| 05/04/2026 | 12:00:00 | 124 | 79 | 11:18:05 | 77 | 11:04:00 | 78 | 44 | 11:08:03 | 36 | 11:26:01 | 38.84 | 0 | 6.5 | 225 | 74 | 70 | 71 | 69 | 70 |
| 05/04/2026 | 13:00:00 | 124 | 80 | 12:09:00 | 78 | 12:28:03 | 79 | 42 | 12:37:01 | 37 | 12:55:05 | 38.71 | 0 | 7.3 | 222 | 75 | 71 | 72 | 71 | 72 |
| 05/04/2026 | 14:00:00 | 124 | 80 | 13:27:01 | 79 | 13:00:05 | 79 | 42 | 13:59:03 | 36 | 13:28:03 | 40.54 | 0 | 7.2 | 223 | 71 | 73 | 73 | 72 | 73 |
| 05/04/2026 | 15:00:00 | 124 | 81 | 14:23:04 | 79 | 14:45:02 | 79 | 43 | 14:02:02 | 37 | 14:58:00 | 40.09 | 0 | 9.8 | 206 | 60 | 73 | 73 | 73 | 74 |
| 05/04/2026 | 16:00:00 | 124 | 80 | 15:05:01 | 78 | 15:46:03 | 79 | 44 | 15:24:01 | 38 | 15:36:05 | 41.36 | 0 | 7.2 | 214 | 42 | 73 | 73 | 74 | 74 |
| 05/04/2026 | 17:00:00 | 124 | 79 | 16:20:01 | 78 | 16:58:03 | 78 | 42 | 16:00:01 | 39 | 16:51:00 | 40.25 | 0 | 8.3 | 209 | 30 | 73 | 73 | 73 | 73 |
| 05/04/2026 | 18:00:00 | 124 | 78 | 17:10:01 | 75 | 18:00:00 | 75 | 44 | 17:54:02 | 39 | 17:01:03 | 43.82 | 0 | 8.4 | 207 | 14 | 73 | 72 | 73 | 72 |
| 05/04/2026 | 19:00:00 | 124 | 75 | 18:00:02 | 73 | 18:59:05 | 73 | 48 | 18:37:04 | 43 | 18:00:01 | 46.77 | 0 | 6.1 | 209 | 2 | 72 | 71 | 72 | 72 |
| 05/04/2026 | 20:00:00 | 124 | 73 | 19:00:01 | 69 | 19:59:05 | 69 | 57 | 19:59:04 | 47 | 19:00:04 | 57.01 | 0 | 5.3 | 198 | 0 | 71 | 71 | 71 | 71 |
| 05/04/2026 | 21:00:00 | 124 | 69 | 20:00:00 | 68 | 20:39:04 | 68 | 61 | 20:38:03 | 57 | 20:00:00 | 59.12 | 0 | 4.3 | 188 | 0 | 70 | 70 | 70 | 70 |
| 05/04/2026 | 22:00:00 | 124 | 69 | 21:58:05 | 68 | 21:00:02 | 69 | 59 | 21:00:01 | 55 | 21:42:02 | 55.91 | 0 | 7.3 | 197 | 0 | 70 | 69 | 70 | 69 |
| 05/04/2026 | 23:00:00 | 124 | 69 | 22:00:00 | 68 | 22:43:02 | 69 | 61 | 22:43:01 | 56 | 22:00:00 | 59.01 | 0 | 7.3 | 195 | 0 | 69 | 69 | 69 | 69 |
| 05/05/2026 | 0:00:00 | 125 | 69 | 23:02:04 | 68 | 23:55:02 | 68 | 61 | 23:59:05 | 58 | 23:03:04 | 61.18 | 0 | 7.6 | 203 | 0 | 68 | 68 | 69 | 68 |
| 05/05/2026 | 1:00:00 | 125 | 68 | 0:00:01 | 67 | 0:59:01 | 67 | 66 | 1:00:00 | 61 | 0:00:02 | 66.12 | 0 | 7.3 | 203 | 0 | 68 | 68 | 68 | 68 |
| 05/05/2026 | 2:00:00 | 125 | 67 | 1:00:00 | 66 | 2:00:00 | 66 | 70 | 1:59:04 | 66 | 1:01:04 | 69.49 | 0 | 7.3 | 199 | 0 | 68 | 67 | 68 | 67 |
| 05/05/2026 | 3:00:00 | 125 | 66 | 2:00:00 | 64 | 2:56:04 | 64 | 74 | 2:59:01 | 69 | 2:00:01 | 74.02 | 0 | 6.8 | 193 | 0 | 67 | 67 | 67 | 67 |
| 05/05/2026 | 4:00:00 | 125 | 64 | 3:15:01 | 63 | 3:59:01 | 63 | 77 | 3:59:02 | 73 | 3:15:02 | 76.7 | 0 | 7.9 | 196 | 0 | 67 | 67 | 67 | 67 |
| 05/05/2026 | 5:00:00 | 125 | 64 | 4:14:03 | 63 | 4:59:01 | 63 | 78 | 4:58:04 | 76 | 4:02:03 | 78.07 | 0 | 8.4 | 198 | 0 | 67 | 66 | 66 | 66 |
| 05/05/2026 | 6:00:00 | 125 | 63 | 5:59:01 | 63 | 5:16:01 | 63 | 80 | 5:47:01 | 78 | 5:01:05 | 78.55 | 0 | 0.9 | 197 | 1 | 66 | 66 | 66 | 66 |
| 05/05/2026 | 7:00:00 | 125 | 66 | 6:34:00 | 63 | 6:00:00 | 65 | 79 | 6:00:04 | 74 | 6:36:00 | 75.57 | 0 | 8.8 | 204 | 11 | 66 | 66 | 66 | 66 |
| 05/05/2026 | 8:00:00 | 125 | 67 | 7:58:00 | 65 | 7:00:00 | 67 | 77 | 7:59:02 | 74 | 7:25:04 | 76.35 | 0 | 6.8 | 209 | 11 | 66 | 66 | 66 | 66 |
| 05/05/2026 | 9:00:00 | 125 | 68 | 9:00:00 | 65 | 8:09:02 | 68 | 82 | 8:08:05 | 76 | 8:00:00 | 77.46 | 0 | 7.1 | 202 | 8 | 66 | 66 | 66 | 66 |
| 05/05/2026 | 10:00:00 | 125 | 71 | 9:56:05 | 68 | 9:00:01 | 71 | 77 | 9:10:01 | 73 | 9:58:05 | 74.59 | 0 | 9.5 | 200 | 18 | 66 | 67 | 66 | 66 |
| 05/05/2026 | 11:00:00 | 125 | 73 | 10:22:01 | 71 | 10:00:00 | 72 | 77 | 10:51:04 | 73 | 10:22:05 | 75.06 | 0 | 11.7 | 202 | 27 | 67 | 67 | 67 | 67 |
| 05/05/2026 | 12:00:00 | 125 | 73 | 11:48:03 | 71 | 11:31:05 | 73 | 81 | 11:35:02 | 75 | 11:50:01 | 76.19 | 0 | 11.0 | 199 | 19 | 67 | 68 | 67 | 67 |
| 05/05/2026 | 13:00:00 | 125 | 75 | 13:00:00 | 73 | 12:00:01 | 75 | 76 | 12:00:04 | 72 | 12:59:05 | 72.31 | 0 | 1.1 | 199 | 23 | 68 | 68 | 68 | 68 |
| 05/05/2026 | 14:00:00 | 125 | 76 | 13:09:00 | 75 | 13:59:04 | 75 | 75 | 13:54:00 | 71 | 13:03:01 | 74.38 | 0 | 9.8 | 202 | 15 | 68 | 68 | 68 | 68 |
| 05/05/2026 | 15:00:00 | 125 | 75 | 14:01:04 | 73 | 14:13:03 | 73 | 83 | 14:12:03 | 74 | 14:01:02 | 82.2 | 0 | 9.5 | 204 | 7 | 68 | 68 | 68 | 68 |
| 05/05/2026 | 16:00:00 | 125 | 74 | 15:59:05 | 72 | 15:28:05 | 74 | 86 | 15:34:02 | 82 | 15:02:02 | 82.2 | 0 | 10.3 | 195 | 9 | 69 | 69 | 68 | 68 |
| 05/05/2026 | 17:00:00 | 125 | 76 | 16:59:02 | 74 | 16:00:01 | 76 | 82 | 16:00:04 | 76 | 16:56:05 | 75.94 | 0 | 8.9 | 184 | 7 | 69 | 69 | 69 | 69 |
| 05/05/2026 | 18:00:00 | 125 | 76 | 17:24:05 | 76 | 17:00:01 | 76 | 77 | 17:59:05 | 75 | 17:03:05 | 76.7 | 0 | 9.1 | 182 | 5 | 69 | 69 | 69 | 69 |
| 05/05/2026 | 19:00:00 | 125 | 76 | 18:27:02 | 75 | 18:17:02 | 76 | 78 | 19:00:00 | 77 | 18:03:02 | 77.61 | 0 | 7.3 | 196 | 0 | 69 | 69 | 69 | 69 |
| 05/05/2026 | 20:00:00 | 125 | 76 | 19:08:03 | 76 | 19:21:03 | 76 | 78 | 19:47:02 | 77 | 19:08:02 | 78.07 | 0 | 8.1 | 197 | 0 | 69 | 69 | 69 | 69 |
| 05/05/2026 | 21:00:00 | 125 | 76 | 20:01:05 | 76 | 20:17:04 | 76 | 79 | 20:57:03 | 78 | 20:01:05 | 79.3 | 0 | 8.5 | 202 | 0 | 69 | 69 | 69 | 69 |
| 05/05/2026 | 22:00:00 | 125 | 76 | 21:08:00 | 75 | 21:57:05 | 75 | 81 | 21:58:03 | 79 | 21:08:02 | 81.1 | 0 | 8.9 | 200 | 0 | 69 | 69 | 69 | 69 |
| 05/05/2026 | 23:00:00 | 125 | 75 | 22:00:00 | 75 | 22:50:00 | 75 | 84 | 22:58:02 | 81 | 22:00:01 | 83.6 | 0 | 9.4 | 202 | 0 | 69 | 69 | 69 | 69 |
| 05/06/2026 | 0:00:00 | 126 | 75 | 23:10:00 | 75 | 23:54:05 | 75 | 85 | 0:00:00 | 84 | 23:05:02 | 84.7 | 0 | 7.3 | 208 | 0 | 69 | 69 | 69 | 69 |
| 05/06/2026 | 1:00:00 | 126 | 75 | 0:58:00 | 75 | 0:13:03 | 75 | 87 | 0:54:05 | 85 | 0:01:01 | 86.6 | 0 | 6.2 | 209 | 0 | 69 | 69 | 69 | 69 |
| 05/06/2026 | 2:00:00 | 126 | 75 | 1:20:04 | 75 | 1:46:02 | 75 | 87 | 1:55:05 | 87 | 1:06:04 | 87.3 | 0 | 5.7 | 216 | 0 | 69 | 69 | 69 | 69 |
| 05/06/2026 | 3:00:00 | 126 | 75 | 2:51:00 | 75 | 2:35:00 | 75 | 88 | 2:35:05 | 87 | 2:00:05 | 87.7 | 0 | 5.3 | 219 | 0 | 69 | 69 | 69 | 69 |
| 05/06/2026 | 4:00:00 | 126 | 75 | 3:22:01 | 75 | 3:48:02 | 75 | 88 | 3:46:00 | 87 | 3:29:05 | 87.9 | 0 | 5.4 | 216 | 0 | 69 | 69 | 69 | 69 |
| 05/06/2026 | 5:00:00 | 126 | 75 | 4:27:05 | 59 | 4:59:05 | 59 | 96 | 4:57:04 | 72 | 4:28:03 | 96 | 0 | 6.9 | 320 | 0 | 69 | 69 | 69 | 69 |
| 05/06/2026 | 6:00:00 | 126 | 59 | 5:00:00 | 58 | 5:50:02 | 58 | 98 | 5:59:01 | 96 | 5:25:03 | 97.3 | 0.03 | 5.6 | 31 | 0 | 69 | 68 | 69 | 69 |
| 05/06/2026 | 7:00:00 | 126 | 58 | 6:50:02 | 58 | 6:59:05 | 58 | 98 | 6:29:01 | 97 | 6:00:03 | 97.3 | 0 | 4.5 | 30 | 3 | 68 | 68 | 69 | 68 |
| 05/06/2026 | 8:00:00 | 126 | 58 | 7:02:00 | 56 | 7:48:04 | 57 | 98 | 7:34:00 | 96 | 7:58:01 | 96.5 | 0 | 6.0 | 18 | 5 | 68 | 67 | 68 | 68 |
| 05/06/2026 | 9:00:00 | 126 | 57 | 8:01:02 | 55 | 8:50:03 | 55 | 98 | 8:49:01 | 96 | 8:07:04 | 97.5 | 0 | 7.6 | 14 | 6 | 67 | 67 | 68 | 68 |
| 05/06/2026 | 10:00:00 | 126 | 56 | 9:59:02 | 55 | 9:04:02 | 56 | 98 | 9:13:00 | 96 | 9:55:00 | 96.6 | 0 | 7.3 | 16 | 12 | 67 | 67 | 68 | 67 |
| 05/06/2026 | 11:00:00 | 126 | 57 | 10:50:05 | 56 | 10:21:01 | 56 | 97 | 10:02:03 | 94 | 10:46:00 | 95.7 | 0 | 7.8 | 16 | 15 | 66 | 66 | 67 | 67 |
| 05/06/2026 | 12:00:00 | 126 | 57 | 11:52:04 | 55 | 11:30:03 | 56 | 98 | 11:32:00 | 91 | 11:53:05 | 92 | 0 | 7.6 | 20 | 19 | 66 | 66 | 67 | 67 |
| 05/06/2026 | 13:00:00 | 126 | 57 | 12:02:01 | 55 | 12:59:04 | 55 | 94 | 12:13:00 | 91 | 12:33:03 | 92.7 | 0 | 7.4 | 19 | 18 | 66 | 66 | 67 | 67 |
| 05/06/2026 | 14:00:00 | 126 | 56 | 13:02:03 | 55 | 13:48:03 | 55 | 97 | 13:51:03 | 93 | 13:00:00 | 96.6 | 0 | 8.3 | 13 | 8 | 66 | 66 | 67 | 67 |
| 05/06/2026 | 15:00:00 | 126 | 56 | 14:44:02 | 54 | 14:16:03 | 55 | 98 | 14:14:00 | 94 | 14:45:04 | 95.2 | 0.04 | 9.3 | 29 | 15 | 66 | 66 | 67 | 67 |
| 05/06/2026 | 16:00:00 | 126 | 57 | 15:30:01 | 55 | 15:01:05 | 57 | 96 | 15:14:01 | 91 | 15:33:01 | 92.8 | 0 | 6.7 | 45 | 15 | 66 | 66 | 67 | 67 |
| 05/06/2026 | 17:00:00 | 126 | 58 | 16:44:02 | 56 | 16:19:02 | 58 | 94 | 16:11:02 | 89 | 16:48:04 | 90.9 | 0 | 6.5 | 33 | 13 | 66 | 66 | 67 | 67 |
| 05/06/2026 | 18:00:00 | 126 | 58 | 17:00:05 | 57 | 17:58:02 | 57 | 93 | 17:54:05 | 91 | 17:05:00 | 91.7 | 0 | 7.0 | 26 | 2 | 66 | 65 | 67 | 67 |
| 05/06/2026 | 19:00:00 | 126 | 57 | 18:01:03 | 56 | 18:56:04 | 56 | 93 | 18:33:00 | 91 | 18:02:04 | 92.2 | 0 | 7.7 | 25 | 0 | 65 | 65 | 66 | 66 |
| 05/06/2026 | 20:00:00 | 126 | 56 | 19:02:05 | 55 | 19:40:05 | 55 | 93 | 19:56:01 | 92 | 19:02:00 | 93.1 | 0 | 8.0 | 24 | 0 | 65 | 65 | 66 | 66 |
| 05/06/2026 | 21:00:00 | 126 | 55 | 20:15:00 | 55 | 20:55:02 | 55 | 95 | 20:49:01 | 93 | 20:00:01 | 94.2 | 0 | 7.2 | 23 | 0 | 64 | 64 | 65 | 65 |
| 05/06/2026 | 22:00:00 | 126 | 55 | 21:07:01 | 55 | 21:58:01 | 55 | 94 | 21:59:03 | 94 | 21:33:02 | 94.2 | 0 | 7.5 | 28 | 0 | 64 | 64 | 65 | 65 |
| 05/06/2026 | 23:00:00 | 126 | 55 | 22:12:01 | 54 | 22:54:04 | 54 | 99 | 22:56:05 | 94 | 22:15:05 | 98.7 | 0.08 | 6.5 | 24 | 0 | 64 | 64 | 65 | 64 |
| 05/07/2026 | 0:00:00 | 127 | 54 | 23:57:01 | 54 | 23:00:01 | 54 | 99 | 23:38:04 | 99 | 23:58:00 | 98.6 | 0.07 | 4.6 | 31 | 0 | 63 | 63 | 64 | 64 |
| 05/07/2026 | 1:00:00 | 127 | 55 | 0:54:05 | 54 | 0:00:00 | 55 | 99 | 0:00:02 | 95 | 0:59:03 | 95.3 | 0 | 6.4 | 26 | 0 | 63 | 63 | 64 | 64 |
| 05/07/2026 | 2:00:00 | 127 | 55 | 1:03:00 | 55 | 1:09:04 | 55 | 96 | 1:27:04 | 95 | 1:44:05 | 95.3 | 0.05 | 5.8 | 18 | 0 | 63 | 63 | 64 | 64 |
| 05/07/2026 | 3:00:00 | 127 | 55 | 2:29:01 | 54 | 3:00:00 | 54 | 95 | 2:00:00 | 93 | 2:54:05 | 93.4 | 0 | 5.7 | 22 | 0 | 63 | 63 | 63 | 63 |
| 05/07/2026 | 4:00:00 | 127 | 55 | 3:00:01 | 54 | 3:59:00 | 54 | 95 | 4:00:00 | 93 | 3:26:01 | 94.8 | 0 | 4.3 | 23 | 0 | 62 | 62 | 63 | 63 |
| 05/07/2026 | 5:00:00 | 127 | 54 | 4:00:00 | 53 | 4:58:03 | 53 | 97 | 4:30:01 | 95 | 4:00:01 | 96 | 0 | 4.3 | 11 | 0 | 62 | 62 | 63 | 63 |
| 05/07/2026 | 6:00:00 | 127 | 54 | 5:59:00 | 53 | 5:15:01 | 54 | 96 | 5:00:01 | 92 | 5:59:05 | 91.6 | 0 | 4.8 | 17 | 3 | 62 | 62 | 63 | 63 |
| 05/07/2026 | 7:00:00 | 127 | 56 | 6:47:05 | 54 | 6:00:00 | 56 | 92 | 6:00:02 | 86 | 6:54:01 | 86.7 | 0 | 6.1 | 21 | 11 | 62 | 62 | 62 | 62 |
| 05/07/2026 | 8:00:00 | 127 | 59 | 7:53:02 | 56 | 7:01:02 | 59 | 88 | 7:05:05 | 78 | 7:55:02 | 78.93 | 0 | 6.8 | 28 | 22 | 62 | 62 | 62 | 62 |
| 05/07/2026 | 9:00:00 | 127 | 63 | 8:54:04 | 59 | 8:00:00 | 62 | 82 | 8:05:05 | 68 | 8:59:05 | 67.99 | 0 | 7.5 | 37 | 49 | 62 | 62 | 63 | 63 |
| 05/07/2026 | 10:00:00 | 127 | 64 | 9:56:00 | 62 | 9:00:03 | 64 | 75 | 9:11:03 | 62 | 9:57:02 | 64.46 | 0 | 7.8 | 36 | 62 | 63 | 63 | 63 | 64 |
| 05/07/2026 | 11:00:00 | 127 | 66 | 10:34:04 | 64 | 10:00:00 | 65 | 71 | 10:02:05 | 56 | 10:59:00 | 60.89 | 0 | 7.4 | 32 | 71 | 64 | 65 | 65 | 66 |
| 05/07/2026 | 12:00:00 | 127 | 68 | 11:32:02 | 65 | 11:08:05 | 67 | 64 | 11:00:03 | 49 | 11:55:02 | 52.29 | 0 | 6.7 | 23 | 75 | 66 | 66 | 67 | 68 |
| 05/07/2026 | 13:00:00 | 127 | 69 | 12:59:04 | 67 | 12:08:04 | 69 | 60 | 12:28:02 | 49 | 12:21:01 | 51.57 | 0 | 5.4 | 17 | 76 | 67 | 68 | 69 | 70 |
| 05/07/2026 | 14:00:00 | 127 | 70 | 13:23:03 | 68 | 13:37:02 | 69 | 55 | 13:02:00 | 45 | 13:14:01 | 51.23 | 0 | 4.9 | 19 | 57 | 69 | 69 | 71 | 71 |
| 05/07/2026 | 15:00:00 | 127 | 71 | 14:44:05 | 68 | 14:08:03 | 69 | 56 | 14:25:05 | 47 | 14:43:05 | 49.53 | 0 | 4.7 | 33 | 42 | 70 | 70 | 72 | 72 |
| 05/07/2026 | 16:00:00 | 127 | 69 | 15:13:03 | 68 | 15:57:04 | 68 | 54 | 15:21:03 | 48 | 15:54:01 | 49.71 | 0 | 5.2 | 21 | 28 | 70 | 70 | 72 | 72 |
| 05/07/2026 | 17:00:00 | 127 | 69 | 16:04:00 | 67 | 16:58:04 | 67 | 54 | 16:52:05 | 47 | 16:04:04 | 50.7 | 0 | 4.2 | 9 | 18 | 70 | 70 | 71 | 71 |
| 05/07/2026 | 18:00:00 | 127 | 68 | 17:04:00 | 66 | 17:59:00 | 66 | 59 | 17:58:00 | 50 | 17:02:03 | 58.39 | 0 | 3.3 | 15 | 9 | 69 | 69 | 71 | 71 |
| 05/07/2026 | 19:00:00 | 127 | 66 | 18:00:00 | 62 | 18:59:05 | 62 | 73 | 18:59:02 | 57 | 18:03:03 | 73.38 | 0 | 0.7 | 358 | 2 | 69 | 69 | 70 | 70 |
| 05/07/2026 | 20:00:00 | 127 | 62 | 19:00:00 | 59 | 19:50:05 | 59 | 86 | 19:46:00 | 70 | 19:25:04 | 77.52 | 0 | 0.4 | 279 | 0 | 68 | 68 | 69 | 69 |
| 05/07/2026 | 21:00:00 | 127 | 59 | 20:14:01 | 57 | 21:00:00 | 57 | 90 | 20:59:05 | 78 | 20:00:00 | 90 | 0 | 0.1 | 36 | 0 | 68 | 68 | 69 | 68 |
| 05/07/2026 | 22:00:00 | 127 | 57 | 21:49:04 | 56 | 21:09:02 | 57 | 93 | 21:16:01 | 88 | 21:41:00 | 91.8 | 0 | 0.5 | 13 | 0 | 67 | 67 | 68 | 68 |
| 05/07/2026 | 23:00:00 | 127 | 57 | 22:00:00 | 55 | 22:57:04 | 55 | 95 | 22:59:02 | 92 | 22:00:00 | 95.3 | 0 | 0.1 | 348 | 0 | 67 | 66 | 67 | 67 |
| 05/08/2026 | 0:00:00 | 128 | 55 | 23:01:01 | 54 | 0:00:00 | 54 | 96 | 23:58:01 | 94 | 23:07:05 | 96.1 | 0 | 0.2 | 315 | 0 | 66 | 66 | 67 | 66 |
| 05/08/2026 | 1:00:00 | 128 | 54 | 0:26:00 | 52 | 0:55:01 | 53 | 99 | 1:00:00 | 96 | 0:00:02 | 98.9 | 0 | 0.3 | 229 | 0 | 65 | 65 | 66 | 66 |
| 05/08/2026 | 2:00:00 | 128 | 53 | 1:59:01 | 52 | 1:44:03 | 53 | 99 | 1:52:03 | 99 | 1:59:05 | 98.6 | 0 | 1.0 | 354 | 0 | 65 | 65 | 65 | 65 |
| 05/08/2026 | 3:00:00 | 128 | 53 | 2:00:00 | 51 | 2:52:05 | 52 | 99 | 2:59:05 | 98 | 2:09:02 | 99.2 | 0 | 0.4 | 208 | 0 | 64 | 64 | 65 | 65 |
| 05/08/2026 | 4:00:00 | 128 | 52 | 3:00:02 | 50 | 3:39:05 | 50 | 100 | 3:54:01 | 99 | 3:17:03 | 99.8 | 0 | 0.2 | 334 | 0 | 64 | 64 | 64 | 64 |
| 05/08/2026 | 5:00:00 | 128 | 50 | 4:00:01 | 48 | 4:59:05 | 48 | 100 | 4:26:03 | 100 | 4:06:05 | 100 | 0 | 0.1 | 94 | 0 | 63 | 63 | 64 | 64 |
| 05/08/2026 | 6:00:00 | 128 | 55 | 5:59:02 | 48 | 5:00:04 | 55 | 100 | 5:00:00 | 96 | 6:00:00 | 96.4 | 0 | 0.3 | 40 | 4 | 63 | 63 | 63 | 63 |
| 05/08/2026 | 7:00:00 | 128 | 60 | 6:47:02 | 55 | 6:00:01 | 60 | 96 | 6:00:01 | 75 | 6:57:00 | 76.97 | 0 | 2.5 | 97 | 9 | 63 | 63 | 63 | 63 |
| 05/08/2026 | 8:00:00 | 128 | 66 | 8:00:00 | 60 | 7:00:00 | 66 | 78 | 7:00:03 | 62 | 7:58:00 | 66.15 | 0 | 3.8 | 129 | 22 | 63 | 63 | 63 | 63 |
| 05/08/2026 | 9:00:00 | 128 | 68 | 8:56:00 | 65 | 8:22:04 | 68 | 66 | 8:15:01 | 53 | 8:56:01 | 56.76 | 0 | 5.1 | 126 | 43 | 63 | 64 | 63 | 64 |
| 05/08/2026 | 10:00:00 | 128 | 70 | 9:55:04 | 68 | 9:05:00 | 70 | 59 | 9:01:00 | 50 | 9:46:03 | 53.62 | 0 | 5.7 | 133 | 52 | 65 | 65 | 64 | 65 |
| 05/08/2026 | 11:00:00 | 128 | 72 | 10:44:05 | 70 | 10:00:02 | 70 | 57 | 10:08:03 | 48 | 10:45:01 | 50.35 | 0 | 5.5 | 164 | 55 | 66 | 67 | 65 | 66 |
| 05/08/2026 | 12:00:00 | 128 | 74 | 12:00:00 | 70 | 11:00:00 | 74 | 55 | 11:18:04 | 47 | 11:59:01 | 49.25 | 0 | 5.6 | 158 | 61 | 67 | 68 | 67 | 67 |
| 05/08/2026 | 13:00:00 | 128 | 75 | 12:05:02 | 72 | 12:36:04 | 74 | 55 | 12:55:04 | 46 | 12:05:04 | 49.9 | 0 | 6.0 | 175 | 54 | 69 | 69 | 68 | 69 |
| 05/08/2026 | 14:00:00 | 128 | 76 | 13:48:04 | 73 | 13:19:03 | 75 | 54 | 13:46:01 | 47 | 13:06:04 | 49.49 | 0 | 7.7 | 172 | 54 | 70 | 70 | 69 | 70 |
| 05/08/2026 | 15:00:00 | 128 | 76 | 14:11:01 | 73 | 14:56:03 | 73 | 54 | 14:57:02 | 47 | 14:07:04 | 52.46 | 0 | 9.4 | 183 | 60 | 70 | 71 | 70 | 70 |
| 05/08/2026 | 16:00:00 | 128 | 75 | 15:18:02 | 73 | 15:59:05 | 73 | 57 | 16:00:00 | 49 | 15:04:05 | 57.08 | 0 | 8.1 | 179 | 43 | 71 | 71 | 70 | 71 |
| 05/08/2026 | 17:00:00 | 128 | 74 | 16:12:00 | 71 | 17:00:00 | 71 | 63 | 16:56:04 | 55 | 16:12:02 | 62.3 | 0 | 8.1 | 180 | 27 | 71 | 71 | 71 | 70 |
| 05/08/2026 | 18:00:00 | 128 | 72 | 17:27:01 | 71 | 18:00:00 | 71 | 65 | 18:00:00 | 61 | 17:27:02 | 65.24 | 0 | 6.7 | 177 | 14 | 70 | 70 | 70 | 70 |
| 05/08/2026 | 19:00:00 | 128 | 71 | 18:00:00 | 68 | 19:00:00 | 68 | 72 | 19:00:00 | 65 | 18:03:04 | 71.67 | 0 | 5.8 | 177 | 2 | 70 | 70 | 70 | 70 |
| 05/08/2026 | 20:00:00 | 128 | 68 | 19:00:00 | 65 | 20:00:00 | 65 | 78 | 20:00:00 | 72 | 19:00:03 | 78.28 | 0 | 2.7 | 169 | 0 | 69 | 69 | 69 | 69 |
| 05/08/2026 | 21:00:00 | 128 | 65 | 20:00:00 | 63 | 20:44:04 | 63 | 85 | 20:54:05 | 78 | 20:00:00 | 84.2 | 0 | 0.9 | 167 | 0 | 69 | 68 | 69 | 68 |
| 05/08/2026 | 22:00:00 | 128 | 64 | 21:05:01 | 63 | 21:44:05 | 63 | 86 | 21:58:02 | 82 | 21:23:04 | 85.4 | 0 | 1.4 | 156 | 0 | 68 | 68 | 68 | 68 |
| 05/08/2026 | 23:00:00 | 128 | 63 | 22:03:01 | 62 | 22:56:04 | 62 | 91 | 22:56:01 | 86 | 22:00:00 | 90.3 | 0 | 1.6 | 187 | 0 | 68 | 67 | 68 | 67 |
| 05/09/2026 | 0:00:00 | 129 | 62 | 23:08:02 | 59 | 0:00:00 | 59 | 94 | 0:00:00 | 90 | 23:09:03 | 94.4 | 0 | 1.1 | 49 | 0 | 67 | 67 | 67 | 67 |
| 05/09/2026 | 1:00:00 | 129 | 60 | 0:56:00 | 59 | 0:04:03 | 60 | 97 | 0:41:05 | 94 | 0:01:00 | 96.7 | 0 | 2.1 | 199 | 0 | 67 | 67 | 67 | 67 |
| 05/09/2026 | 2:00:00 | 129 | 61 | 1:51:03 | 60 | 1:00:01 | 61 | 97 | 1:25:00 | 97 | 1:12:00 | 97.1 | 0 | 2.6 | 198 | 0 | 66 | 66 | 67 | 66 |
| 05/09/2026 | 3:00:00 | 129 | 61 | 2:40:00 | 61 | 2:04:00 | 61 | 98 | 2:59:03 | 97 | 2:00:01 | 98.4 | 0 | 3.1 | 197 | 0 | 66 | 66 | 66 | 66 |
| Average | 65.51 | 63.32 | 64.42 | 74.1 | 67.64 | 70.83 | 0 | 4.95 | 17.75 | 66.89 | 66.89 | 67.24 | 67.27 | |||||||
| Total | 0.27 |